sensor_id;sensor_type;location;lat;lon;timestamp;P1;durP1;ratioP1;P2;durP2;ratioP2
22017;SDS011;11173;51.050;7.108;2022-09-28T00:00:08;0.20;;;0.20;;
22017;SDS011;11173;51.050;7.108;2022-09-28T00:05:09;0.20;;;0.20;;
22017;SDS011;11173;51.050;7.108;2022-09-28T00:10:11;0.20;;;0.20;;
22017;SDS011;11173;51.050;7.108;2022-09-28T00:15:12;1.02;;;0.30;;
22017;SDS011;11173;51.050;7.108;2022-09-28T00:20:12;0.40;;;0.40;;
22017;SDS011;11173;51.050;7.108;2022-09-28T00:25:13;0.50;;;0.50;;
22017;SDS011;11173;51.050;7.108;2022-09-28T00:30:15;0.88;;;0.60;;
22017;SDS011;11173;51.050;7.108;2022-09-28T00:35:16;0.60;;;0.60;;
22017;SDS011;11173;51.050;7.108;2022-09-28T00:40:17;0.93;;;0.93;;
22017;SDS011;11173;51.050;7.108;2022-09-28T00:45:17;1.10;;;0.90;;
22017;SDS011;11173;51.050;7.108;2022-09-28T01:00:21;1.00;;;0.90;;
22017;SDS011;11173;51.050;7.108;2022-09-28T01:05:22;0.55;;;0.55;;
22017;SDS011;11173;51.050;7.108;2022-09-28T01:10:23;1.85;;;0.80;;
22017;SDS011;11173;51.050;7.108;2022-09-28T01:15:24;0.60;;;0.60;;
22017;SDS011;11173;51.050;7.108;2022-09-28T01:26:18;1.05;;;0.68;;
22017;SDS011;11173;51.050;7.108;2022-09-28T01:31:25;0.75;;;0.65;;
22017;SDS011;11173;51.050;7.108;2022-09-28T01:36:32;0.90;;;0.65;;
22017;SDS011;11173;51.050;7.108;2022-09-28T01:41:36;0.80;;;0.80;;
22017;SDS011;11173;51.050;7.108;2022-09-28T01:46:40;0.63;;;0.63;;
22017;SDS011;11173;51.050;7.108;2022-09-28T02:02:14;0.60;;;0.60;;
22017;SDS011;11173;51.050;7.108;2022-09-28T02:07:38;0.60;;;0.60;;
22017;SDS011;11173;51.050;7.108;2022-09-28T02:12:50;0.57;;;0.57;;
22017;SDS011;11173;51.050;7.108;2022-09-28T02:17:55;0.80;;;0.80;;
22017;SDS011;11173;51.050;7.108;2022-09-28T02:22:56;0.70;;;0.60;;
22017;SDS011;11173;51.050;7.108;2022-09-28T02:28:00;0.93;;;0.93;;
22017;SDS011;11173;51.050;7.108;2022-09-28T02:33:07;1.63;;;1.10;;
22017;SDS011;11173;51.050;7.108;2022-09-28T02:38:21;1.52;;;1.02;;
22017;SDS011;11173;51.050;7.108;2022-09-28T02:43:22;1.95;;;1.50;;
22017;SDS011;11173;51.050;7.108;2022-09-28T02:54:20;1.30;;;1.05;;
22017;SDS011;11173;51.050;7.108;2022-09-28T02:59:31;1.85;;;1.30;;
22017;SDS011;11173;51.050;7.108;2022-09-28T03:05:03;0.95;;;0.95;;
22017;SDS011;11173;51.050;7.108;2022-09-28T03:15:32;1.90;;;1.40;;
22017;SDS011;11173;51.050;7.108;2022-09-28T03:20:33;1.83;;;1.73;;
22017;SDS011;11173;51.050;7.108;2022-09-28T03:25:34;1.63;;;1.52;;
22017;SDS011;11173;51.050;7.108;2022-09-28T03:30:34;1.75;;;1.65;;
22017;SDS011;11173;51.050;7.108;2022-09-28T03:35:35;3.10;;;1.75;;
22017;SDS011;11173;51.050;7.108;2022-09-28T03:40:35;2.22;;;1.70;;
22017;SDS011;11173;51.050;7.108;2022-09-28T03:45:35;2.70;;;2.20;;
22017;SDS011;11173;51.050;7.108;2022-09-28T03:50:36;2.13;;;2.03;;
22017;SDS011;11173;51.050;7.108;2022-09-28T03:55:36;1.98;;;1.88;;
22017;SDS011;11173;51.050;7.108;2022-09-28T04:00:37;2.72;;;2.53;;
22017;SDS011;11173;51.050;7.108;2022-09-28T04:05:37;2.88;;;2.50;;
22017;SDS011;11173;51.050;7.108;2022-09-28T04:10:38;3.35;;;2.60;;
22017;SDS011;11173;51.050;7.108;2022-09-28T04:15:38;4.28;;;3.45;;
22017;SDS011;11173;51.050;7.108;2022-09-28T04:20:39;4.70;;;4.30;;
22017;SDS011;11173;51.050;7.108;2022-09-28T04:25:40;4.80;;;4.40;;
22017;SDS011;11173;51.050;7.108;2022-09-28T04:30:41;4.93;;;4.43;;
22017;SDS011;11173;51.050;7.108;2022-09-28T04:35:41;4.97;;;4.05;;
22017;SDS011;11173;51.050;7.108;2022-09-28T04:40:41;5.30;;;4.78;;
22017;SDS011;11173;51.050;7.108;2022-09-28T04:45:42;4.27;;;3.87;;
22017;SDS011;11173;51.050;7.108;2022-09-28T04:50:43;4.22;;;3.60;;
22017;SDS011;11173;51.050;7.108;2022-09-28T04:55:43;4.38;;;4.05;;
22017;SDS011;11173;51.050;7.108;2022-09-28T05:00:43;4.90;;;4.38;;
22017;SDS011;11173;51.050;7.108;2022-09-28T05:05:44;5.35;;;4.85;;
22017;SDS011;11173;51.050;7.108;2022-09-28T05:10:45;5.03;;;4.22;;
22017;SDS011;11173;51.050;7.108;2022-09-28T05:15:45;5.72;;;4.20;;
22017;SDS011;11173;51.050;7.108;2022-09-28T05:20:46;4.40;;;4.00;;
22017;SDS011;11173;51.050;7.108;2022-09-28T05:25:46;5.95;;;5.45;;
22017;SDS011;11173;51.050;7.108;2022-09-28T05:30:47;6.35;;;5.70;;
22017;SDS011;11173;51.050;7.108;2022-09-28T05:35:47;5.93;;;4.85;;
22017;SDS011;11173;51.050;7.108;2022-09-28T05:40:47;5.20;;;4.60;;
22017;SDS011;11173;51.050;7.108;2022-09-28T05:45:48;5.70;;;5.15;;
22017;SDS011;11173;51.050;7.108;2022-09-28T05:50:51;6.53;;;5.57;;
22017;SDS011;11173;51.050;7.108;2022-09-28T05:55:55;4.95;;;4.45;;
22017;SDS011;11173;51.050;7.108;2022-09-28T06:00:56;3.42;;;3.22;;
22017;SDS011;11173;51.050;7.108;2022-09-28T06:05:59;3.00;;;2.80;;
22017;SDS011;11173;51.050;7.108;2022-09-28T06:11:01;3.50;;;3.20;;
22017;SDS011;11173;51.050;7.108;2022-09-28T06:16:01;2.80;;;2.42;;
22017;SDS011;11173;51.050;7.108;2022-09-28T06:21:03;4.15;;;2.97;;
22017;SDS011;11173;51.050;7.108;2022-09-28T06:26:07;3.20;;;3.00;;
22017;SDS011;11173;51.050;7.108;2022-09-28T06:31:07;2.20;;;2.10;;
22017;SDS011;11173;51.050;7.108;2022-09-28T06:36:08;3.90;;;2.80;;
22017;SDS011;11173;51.050;7.108;2022-09-28T06:41:09;3.53;;;3.10;;
22017;SDS011;11173;51.050;7.108;2022-09-28T06:46:10;2.78;;;2.30;;
22017;SDS011;11173;51.050;7.108;2022-09-28T06:51:11;3.97;;;2.83;;
22017;SDS011;11173;51.050;7.108;2022-09-28T06:56:12;3.00;;;2.80;;
22017;SDS011;11173;51.050;7.108;2022-09-28T07:01:12;2.50;;;2.30;;
22017;SDS011;11173;51.050;7.108;2022-09-28T07:06:13;2.97;;;2.42;;
22017;SDS011;11173;51.050;7.108;2022-09-28T07:11:13;2.30;;;2.00;;
22017;SDS011;11173;51.050;7.108;2022-09-28T07:16:14;2.55;;;2.35;;
22017;SDS011;11173;51.050;7.108;2022-09-28T07:21:14;4.20;;;3.38;;
22017;SDS011;11173;51.050;7.108;2022-09-28T07:26:15;3.10;;;2.50;;
22017;SDS011;11173;51.050;7.108;2022-09-28T07:31:15;2.53;;;2.33;;
22017;SDS011;11173;51.050;7.108;2022-09-28T07:36:16;2.33;;;2.20;;
22017;SDS011;11173;51.050;7.108;2022-09-28T07:41:16;1.90;;;1.80;;
22017;SDS011;11173;51.050;7.108;2022-09-28T07:46:21;1.77;;;1.67;;
22017;SDS011;11173;51.050;7.108;2022-09-28T07:51:22;1.83;;;1.73;;
22017;SDS011;11173;51.050;7.108;2022-09-28T07:56:22;1.88;;;1.73;;
22017;SDS011;11173;51.050;7.108;2022-09-28T08:01:23;1.83;;;1.73;;
22017;SDS011;11173;51.050;7.108;2022-09-28T08:06:23;4.35;;;1.63;;
22017;SDS011;11173;51.050;7.108;2022-09-28T08:11:24;1.45;;;1.20;;
22017;SDS011;11173;51.050;7.108;2022-09-28T08:16:26;1.80;;;1.70;;
22017;SDS011;11173;51.050;7.108;2022-09-28T08:21:26;8.52;;;5.03;;
22017;SDS011;11173;51.050;7.108;2022-09-28T08:26:45;8.35;;;4.57;;
22017;SDS011;11173;51.050;7.108;2022-09-28T08:31:46;2.50;;;2.30;;
22017;SDS011;11173;51.050;7.108;2022-09-28T08:36:47;1.73;;;1.60;;
22017;SDS011;11173;51.050;7.108;2022-09-28T08:41:49;1.70;;;1.20;;
22017;SDS011;11173;51.050;7.108;2022-09-28T08:46:59;1.02;;;1.00;;
22017;SDS011;11173;51.050;7.108;2022-09-28T08:52:05;2.22;;;1.20;;
22017;SDS011;11173;51.050;7.108;2022-09-28T08:57:14;1.13;;;1.00;;
22017;SDS011;11173;51.050;7.108;2022-09-28T09:02:28;0.90;;;0.90;;
22017;SDS011;11173;51.050;7.108;2022-09-28T09:07:37;1.10;;;1.00;;
22017;SDS011;11173;51.050;7.108;2022-09-28T09:13:03;2.58;;;1.23;;
22017;SDS011;11173;51.050;7.108;2022-09-28T09:23:37;0.60;;;0.60;;
22017;SDS011;11173;51.050;7.108;2022-09-28T09:34:02;1.73;;;1.08;;
22017;SDS011;11173;51.050;7.108;2022-09-28T09:39:21;1.83;;;1.27;;
22017;SDS011;11173;51.050;7.108;2022-09-28T09:49:59;1.90;;;1.30;;
22017;SDS011;11173;51.050;7.108;2022-09-28T09:55:13;2.05;;;1.50;;
22017;SDS011;11173;51.050;7.108;2022-09-28T10:00:17;2.45;;;1.08;;
22017;SDS011;11173;51.050;7.108;2022-09-28T10:05:20;0.88;;;0.80;;
22017;SDS011;11173;51.050;7.108;2022-09-28T10:11:13;1.25;;;0.90;;
22017;SDS011;11173;51.050;7.108;2022-09-28T10:15:50;1.13;;;0.90;;
22017;SDS011;11173;51.050;7.108;2022-09-28T10:20:50;1.00;;;0.80;;
22017;SDS011;11173;51.050;7.108;2022-09-28T10:25:53;1.15;;;0.93;;
22017;SDS011;11173;51.050;7.108;2022-09-28T10:30:58;0.82;;;0.70;;
22017;SDS011;11173;51.050;7.108;2022-09-28T10:35:59;1.83;;;1.40;;
22017;SDS011;11173;51.050;7.108;2022-09-28T10:41:00;3.03;;;2.22;;
22017;SDS011;11173;51.050;7.108;2022-09-28T10:46:10;2.65;;;1.65;;
22017;SDS011;11173;51.050;7.108;2022-09-28T10:51:13;2.45;;;1.67;;
22017;SDS011;11173;51.050;7.108;2022-09-28T10:56:17;1.98;;;1.30;;
22017;SDS011;11173;51.050;7.108;2022-09-28T11:01:29;0.57;;;0.50;;
22017;SDS011;11173;51.050;7.108;2022-09-28T11:06:37;1.13;;;0.68;;
22017;SDS011;11173;51.050;7.108;2022-09-28T11:11:39;0.25;;;0.25;;
22017;SDS011;11173;51.050;7.108;2022-09-28T11:16:40;0.52;;;0.52;;
22017;SDS011;11173;51.050;7.108;2022-09-28T11:21:43;0.60;;;0.60;;
22017;SDS011;11173;51.050;7.108;2022-09-28T11:26:45;0.40;;;0.40;;
22017;SDS011;11173;51.050;7.108;2022-09-28T11:31:48;0.70;;;0.43;;
22017;SDS011;11173;51.050;7.108;2022-09-28T11:42:36;0.40;;;0.40;;
22017;SDS011;11173;51.050;7.108;2022-09-28T11:47:51;2.40;;;0.60;;
22017;SDS011;11173;51.050;7.108;2022-09-28T11:52:59;0.50;;;0.50;;
22017;SDS011;11173;51.050;7.108;2022-09-28T11:58:11;0.30;;;0.30;;
22017;SDS011;11173;51.050;7.108;2022-09-28T12:03:21;0.55;;;0.20;;
22017;SDS011;11173;51.050;7.108;2022-09-28T12:08:29;1.00;;;0.38;;
22017;SDS011;11173;51.050;7.108;2022-09-28T12:13:36;0.30;;;0.20;;
22017;SDS011;11173;51.050;7.108;2022-09-28T12:23:59;0.47;;;0.32;;
22017;SDS011;11173;51.050;7.108;2022-09-28T12:29:09;0.13;;;0.13;;
22017;SDS011;11173;51.050;7.108;2022-09-28T12:34:13;0.32;;;0.30;;
22017;SDS011;11173;51.050;7.108;2022-09-28T12:39:36;1.27;;;0.50;;
22017;SDS011;11173;51.050;7.108;2022-09-28T12:56:04;3.80;;;2.25;;
22017;SDS011;11173;51.050;7.108;2022-09-28T13:11:34;0.50;;;0.50;;
22017;SDS011;11173;51.050;7.108;2022-09-28T13:16:49;0.43;;;0.40;;
22017;SDS011;11173;51.050;7.108;2022-09-28T13:27:13;0.45;;;0.43;;
22017;SDS011;11173;51.050;7.108;2022-09-28T13:32:18;1.15;;;0.65;;
22017;SDS011;11173;51.050;7.108;2022-09-28T13:37:20;1.60;;;0.50;;
22017;SDS011;11173;51.050;7.108;2022-09-28T13:47:58;0.80;;;0.60;;
22017;SDS011;11173;51.050;7.108;2022-09-28T13:58:30;0.77;;;0.47;;
22017;SDS011;11173;51.050;7.108;2022-09-28T14:14:28;0.13;;;0.13;;
22017;SDS011;11173;51.050;7.108;2022-09-28T14:19:55;0.38;;;0.25;;
22017;SDS011;11173;51.050;7.108;2022-09-28T14:30:54;0.68;;;0.30;;
22017;SDS011;11173;51.050;7.108;2022-09-28T14:36:00;0.52;;;0.10;;
22017;SDS011;11173;51.050;7.108;2022-09-28T14:41:05;0.30;;;0.20;;
22017;SDS011;11173;51.050;7.108;2022-09-28T14:56:26;0.60;;;0.40;;
22017;SDS011;11173;51.050;7.108;2022-09-28T15:01:28;0.50;;;0.40;;
22017;SDS011;11173;51.050;7.108;2022-09-28T15:06:45;0.52;;;0.52;;
22017;SDS011;11173;51.050;7.108;2022-09-28T15:11:47;0.88;;;0.50;;
22017;SDS011;11173;51.050;7.108;2022-09-28T15:16:47;0.28;;;0.28;;
22017;SDS011;11173;51.050;7.108;2022-09-28T15:21:49;0.30;;;0.30;;
22017;SDS011;11173;51.050;7.108;2022-09-28T15:26:50;1.00;;;0.40;;
22017;SDS011;11173;51.050;7.108;2022-09-28T15:31:52;0.40;;;0.20;;
22017;SDS011;11173;51.050;7.108;2022-09-28T15:36:52;0.82;;;0.47;;
22017;SDS011;11173;51.050;7.108;2022-09-28T15:41:55;0.50;;;0.50;;
22017;SDS011;11173;51.050;7.108;2022-09-28T15:47:05;0.20;;;0.20;;
22017;SDS011;11173;51.050;7.108;2022-09-28T15:52:07;0.20;;;0.20;;
22017;SDS011;11173;51.050;7.108;2022-09-28T15:57:27;0.10;;;0.10;;
22017;SDS011;11173;51.050;7.108;2022-09-28T16:02:31;0.30;;;0.10;;
22017;SDS011;11173;51.050;7.108;2022-09-28T16:17:36;0.25;;;0.20;;
22017;SDS011;11173;51.050;7.108;2022-09-28T16:22:37;0.25;;;0.10;;
22017;SDS011;11173;51.050;7.108;2022-09-28T16:27:42;0.10;;;0.10;;
22017;SDS011;11173;51.050;7.108;2022-09-28T16:37:54;0.30;;;0.30;;
22017;SDS011;11173;51.050;7.108;2022-09-28T16:48:03;0.35;;;0.35;;
22017;SDS011;11173;51.050;7.108;2022-09-28T16:53:12;1.38;;;1.27;;
22017;SDS011;11173;51.050;7.108;2022-09-28T16:58:33;1.63;;;1.52;;
22017;SDS011;11173;51.050;7.108;2022-09-28T17:03:33;2.25;;;0.68;;
22017;SDS011;11173;51.050;7.108;2022-09-28T17:08:34;0.50;;;0.50;;
22017;SDS011;11173;51.050;7.108;2022-09-28T17:13:35;0.77;;;0.50;;
22017;SDS011;11173;51.050;7.108;2022-09-28T17:18:36;0.98;;;0.70;;
22017;SDS011;11173;51.050;7.108;2022-09-28T17:23:38;0.80;;;0.80;;
22017;SDS011;11173;51.050;7.108;2022-09-28T17:28:39;0.60;;;0.60;;
22017;SDS011;11173;51.050;7.108;2022-09-28T17:33:39;0.88;;;0.70;;
22017;SDS011;11173;51.050;7.108;2022-09-28T17:38:43;1.85;;;0.68;;
22017;SDS011;11173;51.050;7.108;2022-09-28T17:43:44;0.60;;;0.60;;
22017;SDS011;11173;51.050;7.108;2022-09-28T17:48:45;0.60;;;0.60;;
22017;SDS011;11173;51.050;7.108;2022-09-28T17:53:46;0.88;;;0.70;;
22017;SDS011;11173;51.050;7.108;2022-09-28T17:58:46;0.75;;;0.75;;
22017;SDS011;11173;51.050;7.108;2022-09-28T18:03:47;0.70;;;0.70;;
22017;SDS011;11173;51.050;7.108;2022-09-28T18:08:47;0.70;;;0.70;;
22017;SDS011;11173;51.050;7.108;2022-09-28T18:13:48;0.52;;;0.52;;
22017;SDS011;11173;51.050;7.108;2022-09-28T18:18:48;0.57;;;0.30;;
22017;SDS011;11173;51.050;7.108;2022-09-28T18:23:49;0.35;;;0.35;;
22017;SDS011;11173;51.050;7.108;2022-09-28T18:28:52;0.30;;;0.30;;
22017;SDS011;11173;51.050;7.108;2022-09-28T18:33:57;0.60;;;0.60;;
22017;SDS011;11173;51.050;7.108;2022-09-28T18:39:00;0.60;;;0.60;;
22017;SDS011;11173;51.050;7.108;2022-09-28T18:44:00;0.75;;;0.75;;
22017;SDS011;11173;51.050;7.108;2022-09-28T18:49:03;0.73;;;0.73;;
22017;SDS011;11173;51.050;7.108;2022-09-28T18:54:04;0.50;;;0.50;;
22017;SDS011;11173;51.050;7.108;2022-09-28T18:59:06;0.60;;;0.60;;
22017;SDS011;11173;51.050;7.108;2022-09-28T19:04:08;0.70;;;0.70;;
22017;SDS011;11173;51.050;7.108;2022-09-28T19:09:10;0.40;;;0.40;;
22017;SDS011;11173;51.050;7.108;2022-09-28T19:14:13;0.55;;;0.55;;
22017;SDS011;11173;51.050;7.108;2022-09-28T19:19:15;0.75;;;0.75;;
22017;SDS011;11173;51.050;7.108;2022-09-28T19:24:18;0.90;;;0.90;;
22017;SDS011;11173;51.050;7.108;2022-09-28T19:29:18;0.80;;;0.80;;
22017;SDS011;11173;51.050;7.108;2022-09-28T19:34:19;0.90;;;0.90;;
22017;SDS011;11173;51.050;7.108;2022-09-28T19:39:23;1.05;;;0.93;;
22017;SDS011;11173;51.050;7.108;2022-09-28T19:44:24;0.82;;;0.82;;
22017;SDS011;11173;51.050;7.108;2022-09-28T19:49:26;0.90;;;0.90;;
22017;SDS011;11173;51.050;7.108;2022-09-28T19:54:27;1.30;;;1.20;;
22017;SDS011;11173;51.050;7.108;2022-09-28T19:59:29;1.40;;;1.30;;
22017;SDS011;11173;51.050;7.108;2022-09-28T20:04:30;0.98;;;0.98;;
22017;SDS011;11173;51.050;7.108;2022-09-28T20:09:30;0.93;;;0.93;;
22017;SDS011;11173;51.050;7.108;2022-09-28T20:14:31;1.08;;;1.08;;
22017;SDS011;11173;51.050;7.108;2022-09-28T20:19:32;1.00;;;1.00;;
22017;SDS011;11173;51.050;7.108;2022-09-28T20:24:33;1.30;;;1.20;;
22017;SDS011;11173;51.050;7.108;2022-09-28T20:29:34;1.55;;;1.45;;
22017;SDS011;11173;51.050;7.108;2022-09-28T20:34:34;1.40;;;1.30;;
22017;SDS011;11173;51.050;7.108;2022-09-28T20:39:35;1.63;;;1.15;;
22017;SDS011;11173;51.050;7.108;2022-09-28T20:44:35;0.90;;;0.90;;
22017;SDS011;11173;51.050;7.108;2022-09-28T20:49:35;1.58;;;1.48;;
22017;SDS011;11173;51.050;7.108;2022-09-28T20:54:36;1.50;;;1.40;;
22017;SDS011;11173;51.050;7.108;2022-09-28T20:59:37;1.40;;;1.30;;
22017;SDS011;11173;51.050;7.108;2022-09-28T21:04:37;1.10;;;1.10;;
22017;SDS011;11173;51.050;7.108;2022-09-28T21:09:40;0.60;;;0.60;;
22017;SDS011;11173;51.050;7.108;2022-09-28T21:14:40;0.52;;;0.52;;
22017;SDS011;11173;51.050;7.108;2022-09-28T21:19:41;0.57;;;0.57;;
22017;SDS011;11173;51.050;7.108;2022-09-28T21:24:41;0.43;;;0.30;;
22017;SDS011;11173;51.050;7.108;2022-09-28T21:29:41;0.30;;;0.30;;
22017;SDS011;11173;51.050;7.108;2022-09-28T21:34:42;0.30;;;0.30;;
22017;SDS011;11173;51.050;7.108;2022-09-28T21:39:42;0.50;;;0.50;;
22017;SDS011;11173;51.050;7.108;2022-09-28T21:44:43;1.00;;;0.52;;
22017;SDS011;11173;51.050;7.108;2022-09-28T21:49:43;0.70;;;0.70;;
22017;SDS011;11173;51.050;7.108;2022-09-28T21:54:43;0.90;;;0.90;;
22017;SDS011;11173;51.050;7.108;2022-09-28T21:59:44;1.02;;;1.02;;
22017;SDS011;11173;51.050;7.108;2022-09-28T22:04:44;0.80;;;0.80;;
22017;SDS011;11173;51.050;7.108;2022-09-28T22:09:44;0.55;;;0.55;;
22017;SDS011;11173;51.050;7.108;2022-09-28T22:14:45;0.63;;;0.63;;
22017;SDS011;11173;51.050;7.108;2022-09-28T22:19:45;1.20;;;0.50;;
22017;SDS011;11173;51.050;7.108;2022-09-28T22:24:46;0.90;;;0.60;;
22017;SDS011;11173;51.050;7.108;2022-09-28T22:29:46;0.80;;;0.80;;
22017;SDS011;11173;51.050;7.108;2022-09-28T22:34:46;1.55;;;1.25;;
22017;SDS011;11173;51.050;7.108;2022-09-28T22:39:47;1.40;;;1.30;;
22017;SDS011;11173;51.050;7.108;2022-09-28T22:44:47;1.60;;;1.50;;
22017;SDS011;11173;51.050;7.108;2022-09-28T22:49:47;1.80;;;1.60;;
22017;SDS011;11173;51.050;7.108;2022-09-28T22:54:48;1.80;;;1.60;;
22017;SDS011;11173;51.050;7.108;2022-09-28T22:59:50;1.25;;;1.25;;
22017;SDS011;11173;51.050;7.108;2022-09-28T23:04:50;1.60;;;1.30;;
22017;SDS011;11173;51.050;7.108;2022-09-28T23:09:50;1.57;;;1.47;;
22017;SDS011;11173;51.050;7.108;2022-09-28T23:14:51;1.10;;;1.10;;
22017;SDS011;11173;51.050;7.108;2022-09-28T23:19:51;0.80;;;0.80;;
22017;SDS011;11173;51.050;7.108;2022-09-28T23:24:51;0.43;;;0.43;;
22017;SDS011;11173;51.050;7.108;2022-09-28T23:29:52;0.30;;;0.30;;
22017;SDS011;11173;51.050;7.108;2022-09-28T23:34:53;0.40;;;0.40;;
22017;SDS011;11173;51.050;7.108;2022-09-28T23:39:53;0.30;;;0.30;;
22017;SDS011;11173;51.050;7.108;2022-09-28T23:44:54;0.40;;;0.40;;
22017;SDS011;11173;51.050;7.108;2022-09-28T23:49:54;0.30;;;0.30;;
22017;SDS011;11173;51.050;7.108;2022-09-28T23:54:55;1.13;;;0.22;;
22017;SDS011;11173;51.050;7.108;2022-09-28T23:59:55;0.30;;;0.30;;
